Portada
METAR-TAF:

METAR-TAF

Aeroports :

Khartum, Sudan

latitud: 15-36N, longitud: 032-33E, altitud: 382 m

Observació

L'informe es va fer fa 34 minuts, a les 04:00 UTC
Vent 7 kt del Nord/Nord-Est
Temperatura 25°C
Humitat 13%
Pressió 1008 hPa
Visibilitat 10 km o més
sense núvols per sota de 1500 mi sense presència de cumulonimbus.

METAR: HSSS 230400Z 02007KT CAVOK 25/M05 Q1008 NOSIG

Hora: 07:34 (04:34 UTC)

Pronòstic

L'informe es va fer fa 5 hores i 34 minuts, a les 23:00 UTC
Pronòstic vàlid del 23 a les 00 UTC al 24 a les 06 UTC
Vent 8 kt del Nord/Nord-Est amb ràfegues de 18 kt
Visibilitat 10 km o més
sense núvols per sota de 1500 mi sense presència de cumulonimbus.
Temporalment
l' 23 a les 04 UTC al 23 a les 09 UTC
Visibilitat: 6000 m

TAF: HSSS 222300Z 2300/2406 02008G18KT CAVOK TEMPO 2304/2309 6000

Observacions i pronòstics meteorològics de més de 4000 aeroports (METAR i TAF).

Les estacions disponibles són els punts grocs i vermells al mapa.

Posi el ratolí al punt desitjat per veure el nom de l'estació.

Feu clic per veure les observacions i els pronòstics meteorològics.

Per canviar el mapa: feu clic els botons verds amb una creu de color negre per apropar; al botó verd amb un guió per allunyar la imatge; o en les fletxes verdes per a mapes adjacents.


METAR-TAF: